sensor_id;sensor_type;location;lat;lon;timestamp;P1;durP1;ratioP1;P2;durP2;ratioP2
84262;SDS011;74406;12.368;-1.528;2024-03-17T12:03:23;58.47;;;8.93;;
84262;SDS011;74406;12.368;-1.528;2024-03-17T12:08:24;40.60;;;6.85;;
84262;SDS011;74406;12.368;-1.528;2024-03-17T12:13:32;541.30;;;200.40;;
84262;SDS011;74406;12.368;-1.528;2024-03-17T12:18:34;200.63;;;101.80;;
84262;SDS011;74406;12.368;-1.528;2024-03-17T12:23:35;183.52;;;44.63;;
84262;SDS011;74406;12.368;-1.528;2024-03-17T12:28:37;69.38;;;11.60;;
84262;SDS011;74406;12.368;-1.528;2024-03-17T12:33:38;64.25;;;16.27;;
84262;SDS011;74406;12.368;-1.528;2024-03-17T12:38:39;38.75;;;9.60;;
84262;SDS011;74406;12.368;-1.528;2024-03-17T12:43:47;54.30;;;11.30;;
84262;SDS011;74406;12.368;-1.528;2024-03-17T12:48:57;62.72;;;11.70;;
84262;SDS011;74406;12.368;-1.528;2024-03-17T12:54:12;42.30;;;9.18;;
84262;SDS011;74406;12.368;-1.528;2024-03-17T12:59:14;43.70;;;6.20;;
84262;SDS011;74406;12.368;-1.528;2024-03-17T13:04:16;35.30;;;5.85;;
84262;SDS011;74406;12.368;-1.528;2024-03-17T13:09:19;39.58;;;5.65;;
84262;SDS011;74406;12.368;-1.528;2024-03-17T13:14:20;39.15;;;5.45;;
84262;SDS011;74406;12.368;-1.528;2024-03-17T13:19:21;33.95;;;5.50;;
84262;SDS011;74406;12.368;-1.528;2024-03-17T13:24:23;38.17;;;5.55;;
84262;SDS011;74406;12.368;-1.528;2024-03-17T13:29:25;26.40;;;4.40;;
84262;SDS011;74406;12.368;-1.528;2024-03-17T13:34:26;34.40;;;4.60;;
84262;SDS011;74406;12.368;-1.528;2024-03-17T13:39:31;57.15;;;6.22;;
84262;SDS011;74406;12.368;-1.528;2024-03-17T13:44:32;28.02;;;4.35;;
84262;SDS011;74406;12.368;-1.528;2024-03-17T13:49:33;23.08;;;4.32;;
84262;SDS011;74406;12.368;-1.528;2024-03-17T13:54:35;39.35;;;5.63;;
84262;SDS011;74406;12.368;-1.528;2024-03-17T13:59:36;34.97;;;6.07;;
84262;SDS011;74406;12.368;-1.528;2024-03-17T14:04:38;22.95;;;4.40;;
84262;SDS011;74406;12.368;-1.528;2024-03-17T14:40:40;109.70;;;30.15;;
84262;SDS011;74406;12.368;-1.528;2024-03-17T14:45:41;52.08;;;14.88;;
84262;SDS011;74406;12.368;-1.528;2024-03-17T14:50:43;39.03;;;9.43;;
84262;SDS011;74406;12.368;-1.528;2024-03-17T14:55:44;56.50;;;11.68;;
84262;SDS011;74406;12.368;-1.528;2024-03-17T15:00:45;38.95;;;9.80;;
84262;SDS011;74406;12.368;-1.528;2024-03-17T15:05:47;46.03;;;10.38;;
84262;SDS011;74406;12.368;-1.528;2024-03-17T15:10:48;45.22;;;17.27;;
84262;SDS011;74406;12.368;-1.528;2024-03-17T15:15:49;69.32;;;20.52;;
84262;SDS011;74406;12.368;-1.528;2024-03-17T15:20:52;63.83;;;15.25;;
84262;SDS011;74406;12.368;-1.528;2024-03-17T15:25:54;54.97;;;15.25;;
84262;SDS011;74406;12.368;-1.528;2024-03-17T15:31:01;34.63;;;8.03;;
84262;SDS011;74406;12.368;-1.528;2024-03-17T15:36:06;37.30;;;10.32;;
84262;SDS011;74406;12.368;-1.528;2024-03-17T15:41:08;40.22;;;15.25;;
84262;SDS011;74406;12.368;-1.528;2024-03-17T15:46:18;37.33;;;8.63;;
84262;SDS011;74406;12.368;-1.528;2024-03-17T15:51:20;35.17;;;8.85;;
84262;SDS011;74406;12.368;-1.528;2024-03-17T15:56:21;38.17;;;9.30;;
84262;SDS011;74406;12.368;-1.528;2024-03-17T16:01:23;47.08;;;11.23;;
84262;SDS011;74406;12.368;-1.528;2024-03-17T16:06:24;42.58;;;14.25;;
84262;SDS011;74406;12.368;-1.528;2024-03-17T16:11:28;61.47;;;14.63;;
84262;SDS011;74406;12.368;-1.528;2024-03-17T16:16:30;51.65;;;14.90;;
84262;SDS011;74406;12.368;-1.528;2024-03-17T16:21:31;101.57;;;49.33;;
84262;SDS011;74406;12.368;-1.528;2024-03-17T16:26:33;48.92;;;13.90;;
84262;SDS011;74406;12.368;-1.528;2024-03-17T16:31:35;54.88;;;14.45;;
84262;SDS011;74406;12.368;-1.528;2024-03-17T16:36:36;57.20;;;12.80;;
84262;SDS011;74406;12.368;-1.528;2024-03-17T16:41:37;98.63;;;43.90;;
84262;SDS011;74406;12.368;-1.528;2024-03-17T16:51:49;168.35;;;89.78;;
84262;SDS011;74406;12.368;-1.528;2024-03-17T16:56:51;186.93;;;93.85;;
84262;SDS011;74406;12.368;-1.528;2024-03-17T17:01:52;110.38;;;55.35;;
84262;SDS011;74406;12.368;-1.528;2024-03-17T17:06:56;57.08;;;19.48;;
84262;SDS011;74406;12.368;-1.528;2024-03-17T17:11:57;58.50;;;15.07;;
84262;SDS011;74406;12.368;-1.528;2024-03-17T17:16:58;70.35;;;18.70;;
84262;SDS011;74406;12.368;-1.528;2024-03-17T17:22:00;89.60;;;29.98;;
84262;SDS011;74406;12.368;-1.528;2024-03-17T17:27:07;232.65;;;99.65;;
84262;SDS011;74406;12.368;-1.528;2024-03-17T17:32:08;91.18;;;20.48;;
84262;SDS011;74406;12.368;-1.528;2024-03-17T17:37:10;151.23;;;74.78;;
84262;SDS011;74406;12.368;-1.528;2024-03-17T17:42:11;317.67;;;114.32;;
84262;SDS011;74406;12.368;-1.528;2024-03-17T17:47:12;119.15;;;41.83;;
84262;SDS011;74406;12.368;-1.528;2024-03-17T17:52:14;325.42;;;117.15;;
84262;SDS011;74406;12.368;-1.528;2024-03-17T17:57:15;281.90;;;104.25;;
84262;SDS011;74406;12.368;-1.528;2024-03-17T18:02:18;492.90;;;149.02;;
84262;SDS011;74406;12.368;-1.528;2024-03-17T18:07:19;593.53;;;170.73;;
84262;SDS011;74406;12.368;-1.528;2024-03-17T18:12:20;459.52;;;117.63;;
84262;SDS011;74406;12.368;-1.528;2024-03-17T18:17:22;532.50;;;131.30;;
84262;SDS011;74406;12.368;-1.528;2024-03-17T18:22:23;564.72;;;125.38;;
84262;SDS011;74406;12.368;-1.528;2024-03-17T18:27:24;573.42;;;143.98;;
84262;SDS011;74406;12.368;-1.528;2024-03-17T18:32:25;533.72;;;140.27;;
84262;SDS011;74406;12.368;-1.528;2024-03-17T18:37:28;573.78;;;146.88;;
84262;SDS011;74406;12.368;-1.528;2024-03-17T18:42:32;793.15;;;209.90;;
84262;SDS011;74406;12.368;-1.528;2024-03-17T18:47:33;530.47;;;110.72;;
84262;SDS011;74406;12.368;-1.528;2024-03-17T18:52:35;737.42;;;211.70;;
84262;SDS011;74406;12.368;-1.528;2024-03-17T18:57:36;670.97;;;162.00;;
84262;SDS011;74406;12.368;-1.528;2024-03-17T19:02:37;781.13;;;213.57;;
84262;SDS011;74406;12.368;-1.528;2024-03-17T19:07:39;855.72;;;227.93;;
84262;SDS011;74406;12.368;-1.528;2024-03-17T19:12:40;872.55;;;228.02;;
84262;SDS011;74406;12.368;-1.528;2024-03-17T19:17:41;761.97;;;206.02;;
84262;SDS011;74406;12.368;-1.528;2024-03-17T19:22:43;863.42;;;236.65;;
84262;SDS011;74406;12.368;-1.528;2024-03-17T19:27:44;854.13;;;208.18;;
84262;SDS011;74406;12.368;-1.528;2024-03-17T19:32:46;885.30;;;290.75;;
84262;SDS011;74406;12.368;-1.528;2024-03-17T19:37:48;1005.10;;;284.15;;
84262;SDS011;74406;12.368;-1.528;2024-03-17T19:42:49;976.58;;;255.45;;
84262;SDS011;74406;12.368;-1.528;2024-03-17T19:47:50;1025.68;;;261.15;;
84262;SDS011;74406;12.368;-1.528;2024-03-17T19:52:52;863.60;;;205.85;;
84262;SDS011;74406;12.368;-1.528;2024-03-17T19:57:53;1088.03;;;275.77;;
84262;SDS011;74406;12.368;-1.528;2024-03-17T20:02:55;945.95;;;213.57;;
84262;SDS011;74406;12.368;-1.528;2024-03-17T20:07:58;1028.57;;;267.67;;
84262;SDS011;74406;12.368;-1.528;2024-03-17T20:12:59;937.65;;;227.52;;
84262;SDS011;74406;12.368;-1.528;2024-03-17T20:18:01;981.53;;;271.20;;
84262;SDS011;74406;12.368;-1.528;2024-03-17T20:23:02;926.70;;;270.60;;
84262;SDS011;74406;12.368;-1.528;2024-03-17T20:28:04;1003.97;;;237.48;;
84262;SDS011;74406;12.368;-1.528;2024-03-17T20:33:06;900.78;;;249.25;;
84262;SDS011;74406;12.368;-1.528;2024-03-17T20:38:08;842.10;;;207.82;;
84262;SDS011;74406;12.368;-1.528;2024-03-17T20:43:10;907.55;;;256.40;;
84262;SDS011;74406;12.368;-1.528;2024-03-17T20:48:13;743.22;;;190.50;;
84262;SDS011;74406;12.368;-1.528;2024-03-17T20:53:16;853.13;;;201.10;;
84262;SDS011;74406;12.368;-1.528;2024-03-17T20:58:17;773.47;;;215.40;;
84262;SDS011;74406;12.368;-1.528;2024-03-17T21:03:20;806.25;;;210.88;;
84262;SDS011;74406;12.368;-1.528;2024-03-17T21:08:21;737.25;;;208.75;;
84262;SDS011;74406;12.368;-1.528;2024-03-17T21:13:26;691.83;;;215.05;;
84262;SDS011;74406;12.368;-1.528;2024-03-17T21:18:27;615.28;;;162.52;;
84262;SDS011;74406;12.368;-1.528;2024-03-17T21:23:30;665.80;;;178.88;;
84262;SDS011;74406;12.368;-1.528;2024-03-17T21:28:35;628.30;;;166.02;;
84262;SDS011;74406;12.368;-1.528;2024-03-17T21:33:36;640.17;;;163.60;;
84262;SDS011;74406;12.368;-1.528;2024-03-17T21:38:38;689.78;;;178.43;;
84262;SDS011;74406;12.368;-1.528;2024-03-17T21:43:40;685.88;;;180.38;;
84262;SDS011;74406;12.368;-1.528;2024-03-17T21:48:41;641.33;;;168.82;;
84262;SDS011;74406;12.368;-1.528;2024-03-17T22:50:53;307.77;;;89.22;;
84262;SDS011;74406;12.368;-1.528;2024-03-17T22:55:54;279.25;;;71.97;;
84262;SDS011;74406;12.368;-1.528;2024-03-17T23:00:56;407.40;;;104.68;;
84262;SDS011;74406;12.368;-1.528;2024-03-17T23:05:58;384.00;;;104.50;;
84262;SDS011;74406;12.368;-1.528;2024-03-17T23:11:00;223.10;;;49.55;;
84262;SDS011;74406;12.368;-1.528;2024-03-17T23:16:01;145.73;;;31.88;;
84262;SDS011;74406;12.368;-1.528;2024-03-17T23:21:03;154.63;;;28.73;;
84262;SDS011;74406;12.368;-1.528;2024-03-17T23:26:04;226.10;;;58.80;;
84262;SDS011;74406;12.368;-1.528;2024-03-17T23:31:06;141.05;;;26.20;;
84262;SDS011;74406;12.368;-1.528;2024-03-17T23:36:07;131.55;;;29.77;;
84262;SDS011;74406;12.368;-1.528;2024-03-17T23:41:08;142.98;;;30.25;;
84262;SDS011;74406;12.368;-1.528;2024-03-17T23:46:09;100.40;;;21.10;;
84262;SDS011;74406;12.368;-1.528;2024-03-17T23:51:10;69.68;;;14.10;;
84262;SDS011;74406;12.368;-1.528;2024-03-17T23:56:11;65.47;;;10.07;;
